createdAt,value
2018-12-06T00:07:13.640Z,4.43
2018-12-06T00:12:52.792Z,3.17
2018-12-06T00:26:28.251Z,7.37
2018-12-06T00:29:02.516Z,3.67
2018-12-06T00:31:36.710Z,4.07
2018-12-06T00:34:11.641Z,3.07
2018-12-06T00:36:46.012Z,4.20
2018-12-06T00:41:28.086Z,5.00
2018-12-06T00:44:03.054Z,3.13
2018-12-06T00:52:33.741Z,2.60
2018-12-06T00:55:09.004Z,3.57
2018-12-06T00:57:43.321Z,3.20
2018-12-06T01:00:19.593Z,4.87
2018-12-06T01:02:57.092Z,5.00
2018-12-06T01:05:31.260Z,3.80
2018-12-06T01:08:05.560Z,4.73
2018-12-06T01:10:43.962Z,4.57
2018-12-06T01:13:19.849Z,5.90
2018-12-06T01:18:37.043Z,4.10
2018-12-06T01:21:11.337Z,5.33
2018-12-06T01:23:49.853Z,5.10
2018-12-06T01:26:24.788Z,4.43
2018-12-06T01:29:26.244Z,5.70
2018-12-06T01:39:02.380Z,5.67
2018-12-06T01:44:51.779Z,3.70
2018-12-06T01:47:38.792Z,6.83
2018-12-06T01:50:31.329Z,4.30
2018-12-06T01:53:07.423Z,4.47
2018-12-06T01:55:51.419Z,3.13
2018-12-06T01:58:26.216Z,6.23
2018-12-06T02:03:44.483Z,4.03
2018-12-06T02:06:18.679Z,3.53
2018-12-06T02:08:52.788Z,3.07
2018-12-06T02:11:27.429Z,5.30
2018-12-06T02:14:09.669Z,4.20
2018-12-06T02:16:43.947Z,4.07
2018-12-06T02:19:20.016Z,5.07
2018-12-06T02:21:54.530Z,3.77
2018-12-06T02:24:29.130Z,3.83
2018-12-06T02:27:04.371Z,4.10
2018-12-06T02:29:44.650Z,2.90
2018-12-06T02:32:19.085Z,4.07
2018-12-06T02:34:53.157Z,3.90
2018-12-06T02:37:27.152Z,3.57
2018-12-06T02:40:00.983Z,3.07
2018-12-06T02:42:34.949Z,3.10
2018-12-06T02:45:09.489Z,3.63
2018-12-06T02:47:43.503Z,5.20
2018-12-06T02:50:20.209Z,4.00
2018-12-06T02:52:54.087Z,2.27
2018-12-06T02:58:06.574Z,3.00
2018-12-06T03:00:40.667Z,2.87
2018-12-06T03:03:18.636Z,5.23
2018-12-06T03:05:52.995Z,3.83
2018-12-06T03:08:27.225Z,3.87
2018-12-06T03:11:04.417Z,4.60
2018-12-06T03:19:10.658Z,3.30
2018-12-06T03:21:44.931Z,4.00
2018-12-06T03:24:18.907Z,3.57
2018-12-06T03:26:53.254Z,2.43
2018-12-06T03:29:34.199Z,5.63
2018-12-06T03:32:08.846Z,3.70
2018-12-06T03:34:42.815Z,5.57
2018-12-06T03:37:16.731Z,4.33
2018-12-06T03:39:51.718Z,3.80
2018-12-06T03:42:26.201Z,5.13
2018-12-06T03:47:44.765Z,4.70
2018-12-06T03:50:20.195Z,3.50
2018-12-06T03:56:04.287Z,5.17
2018-12-06T03:58:39.019Z,3.63
2018-12-06T04:01:13.670Z,6.13
2018-12-06T04:03:48.295Z,5.03
2018-12-06T04:06:22.347Z,4.27
2018-12-06T04:08:57.032Z,3.60
2018-12-06T04:11:31.496Z,4.57
2018-12-06T04:14:06.714Z,3.17
2018-12-06T04:16:41.362Z,6.17
2018-12-06T04:22:22.440Z,5.13
2018-12-06T04:25:03.863Z,3.50
2018-12-06T04:27:38.245Z,4.37
2018-12-06T04:39:03.627Z,3.83
2018-12-06T04:41:38.036Z,4.97
2018-12-06T04:46:52.103Z,4.20
2018-12-06T04:49:29.712Z,6.07
2018-12-06T04:52:05.215Z,4.97
2018-12-06T04:54:43.893Z,4.43
2018-12-06T04:57:19.715Z,2.90
2018-12-06T04:59:53.832Z,4.30
2018-12-06T05:02:30.163Z,5.87
2018-12-06T05:07:47.709Z,3.90
2018-12-06T05:10:21.774Z,4.30
2018-12-06T05:12:55.849Z,4.20
2018-12-06T05:15:30.363Z,2.90
2018-12-06T05:18:13.448Z,3.93
2018-12-06T05:23:38.808Z,4.23
2018-12-06T05:30:47.614Z,4.77
2018-12-06T05:33:22.161Z,5.33
2018-12-06T05:35:56.436Z,5.10
2018-12-06T05:38:31.142Z,2.67
2018-12-06T05:43:44.472Z,5.90
2018-12-06T05:54:45.735Z,3.47
2018-12-06T05:57:19.647Z,5.37
2018-12-06T05:59:54.903Z,6.33
2018-12-06T06:02:31.908Z,2.70
2018-12-06T06:05:12.315Z,5.90
2018-12-06T06:07:46.599Z,3.67
2018-12-06T06:10:26.067Z,2.70
2018-12-06T06:13:06.844Z,6.10
2018-12-06T06:15:41.943Z,3.53
2018-12-06T06:18:16.848Z,4.30
2018-12-06T06:21:02.079Z,4.90
2018-12-06T06:23:36.755Z,6.03
2018-12-06T06:26:11.221Z,3.57
2018-12-06T06:28:45.129Z,4.53
2018-12-06T06:31:20.522Z,4.53
2018-12-06T06:33:58.883Z,3.53
2018-12-06T06:36:32.917Z,3.90
2018-12-06T06:39:07.325Z,3.80
2018-12-06T06:41:42.984Z,3.83
2018-12-06T06:44:18.547Z,6.83
2018-12-06T06:46:52.623Z,8.37
2018-12-06T06:49:26.916Z,3.73
2018-12-06T06:52:00.812Z,3.13
2018-12-06T06:54:34.420Z,3.03
2018-12-06T06:57:13.926Z,4.17
2018-12-06T06:59:48.148Z,4.50
2018-12-06T07:02:22.130Z,3.87
2018-12-06T07:04:56.116Z,4.37
2018-12-06T07:07:29.947Z,5.67
2018-12-06T07:10:08.148Z,3.50
2018-12-06T07:12:43.305Z,4.80
2018-12-06T07:15:22.529Z,5.50
2018-12-06T07:20:45.208Z,4.30
2018-12-06T07:26:09.733Z,5.40
2018-12-06T07:28:45.034Z,5.57
2018-12-06T07:31:27.100Z,4.37
2018-12-06T07:34:10.282Z,4.10
2018-12-06T07:36:44.670Z,4.70
2018-12-06T07:39:19.002Z,3.57
2018-12-06T07:41:54.230Z,4.50
2018-12-06T07:44:28.365Z,3.53
2018-12-06T07:47:03.227Z,5.50
2018-12-06T07:49:37.317Z,3.97
2018-12-06T07:52:12.687Z,3.13
2018-12-06T07:54:53.382Z,3.77
2018-12-06T07:57:29.931Z,7.50
2018-12-06T08:00:10.503Z,4.67
2018-12-06T08:02:49.908Z,5.30
2018-12-06T08:05:24.245Z,4.83
2018-12-06T08:07:59.373Z,5.43
2018-12-06T08:10:36.520Z,5.20
2018-12-06T08:13:11.539Z,4.63
2018-12-06T08:15:49.313Z,4.17
2018-12-06T08:18:24.664Z,3.10
2018-12-06T08:20:58.893Z,3.63
2018-12-06T08:26:12.480Z,4.63
2018-12-06T08:28:46.864Z,5.17
2018-12-06T08:31:21.093Z,5.60
2018-12-06T08:33:55.589Z,4.47
2018-12-06T08:36:30.904Z,4.27
2018-12-06T08:39:08.454Z,4.00
2018-12-06T08:41:46.539Z,4.77
2018-12-06T08:44:24.609Z,6.03
2018-12-06T08:49:43.965Z,3.73
2018-12-06T08:55:18.064Z,4.57
2018-12-06T08:57:55.619Z,3.80
2018-12-06T09:03:15.575Z,6.50
2018-12-06T09:05:56.094Z,4.43
2018-12-06T09:08:30.975Z,5.33
2018-12-06T09:11:05.466Z,3.77
2018-12-06T09:13:39.553Z,5.00
2018-12-06T09:19:19.817Z,4.13
2018-12-06T09:21:54.315Z,3.67
2018-12-06T09:24:29.590Z,4.03
2018-12-06T09:27:03.954Z,4.27
2018-12-06T09:29:38.112Z,4.37
2018-12-06T09:32:19.065Z,4.70
2018-12-06T09:37:32.394Z,4.27
2018-12-06T09:40:06.793Z,4.47
2018-12-06T09:42:40.628Z,5.67
2018-12-06T09:45:14.690Z,4.17
2018-12-06T09:47:48.964Z,5.90
2018-12-06T09:53:01.401Z,3.87
2018-12-06T09:55:37.153Z,3.37
2018-12-06T09:58:12.311Z,5.23
2018-12-06T10:00:46.604Z,3.33
2018-12-06T10:03:21.304Z,4.43
2018-12-06T10:05:55.225Z,5.00
2018-12-06T10:08:29.207Z,3.93
2018-12-06T10:11:03.391Z,5.27
2018-12-06T10:13:37.511Z,5.73
2018-12-06T10:16:11.338Z,3.07
2018-12-06T10:18:45.368Z,4.37
2018-12-06T10:21:19.130Z,6.93
2018-12-06T10:23:53.131Z,3.10
2018-12-06T10:26:27.050Z,6.53
2018-12-06T10:29:03.180Z,5.47
2018-12-06T10:31:37.511Z,4.63
2018-12-06T10:34:15.636Z,4.47
2018-12-06T10:36:53.416Z,6.73
2018-12-06T10:39:27.870Z,5.07
2018-12-06T10:44:45.358Z,7.67
2018-12-06T10:47:23.992Z,5.97
2018-12-06T10:49:58.190Z,6.27
2018-12-06T10:52:33.640Z,9.33
2018-12-06T10:55:07.725Z,7.57
2018-12-06T10:57:41.865Z,7.27
2018-12-06T11:00:21.503Z,6.60
2018-12-06T11:03:17.027Z,5.70
2018-12-06T11:05:52.195Z,7.23
2018-12-06T11:08:35.558Z,5.80
2018-12-06T11:11:09.890Z,8.73
2018-12-06T11:13:44.150Z,9.57
2018-12-06T11:16:18.242Z,8.13
2018-12-06T11:18:52.596Z,8.00
2018-12-06T11:21:26.716Z,6.23
2018-12-06T11:24:00.619Z,8.20
2018-12-06T11:26:34.611Z,6.83
2018-12-06T11:29:08.593Z,6.60
2018-12-06T11:34:20.312Z,7.53
2018-12-06T11:36:54.134Z,7.40
2018-12-06T11:39:31.099Z,9.77
2018-12-06T11:44:45.805Z,4.60
2018-12-06T11:47:23.794Z,5.47
2018-12-06T11:49:57.661Z,4.63
2018-12-06T11:52:38.221Z,4.20
2018-12-06T11:55:12.274Z,5.10
2018-12-06T11:57:49.628Z,4.93
2018-12-06T12:00:23.689Z,6.07
2018-12-06T12:02:57.891Z,6.03
2018-12-06T12:08:15.301Z,6.30
2018-12-06T12:10:55.785Z,6.67
2018-12-06T12:13:29.590Z,5.33
2018-12-06T12:16:03.396Z,5.63
2018-12-06T12:18:37.440Z,4.40
2018-12-06T12:21:11.427Z,6.53
2018-12-06T12:23:45.430Z,4.60
2018-12-06T12:26:19.363Z,3.77
2018-12-06T12:31:38.718Z,5.23
2018-12-06T12:34:13.070Z,6.60
2018-12-06T12:36:48.842Z,3.53
2018-12-06T12:39:24.072Z,4.97
2018-12-06T12:41:58.300Z,6.00
2018-12-06T12:44:32.625Z,5.57
2018-12-06T12:47:06.703Z,5.93
2018-12-06T12:49:40.588Z,4.97
2018-12-06T12:52:14.418Z,6.40
2018-12-06T12:54:48.832Z,5.80
2018-12-06T12:57:23.191Z,4.83
2018-12-06T13:00:02.273Z,4.23
2018-12-06T13:02:36.183Z,4.77
2018-12-06T13:05:10.440Z,6.80
2018-12-06T13:07:44.946Z,4.87
2018-12-06T13:10:19.229Z,4.80
2018-12-06T13:12:53.260Z,5.13
2018-12-06T13:15:27.398Z,5.37
2018-12-06T13:18:01.753Z,5.27
2018-12-06T13:20:35.931Z,5.13
2018-12-06T13:28:35.183Z,5.97
2018-12-06T13:31:09.615Z,5.33
2018-12-06T13:33:43.759Z,6.17
2018-12-06T13:36:18.336Z,4.73
2018-12-06T13:38:52.581Z,4.77
2018-12-06T13:41:26.729Z,5.80
2018-12-06T13:44:00.874Z,5.13
2018-12-06T13:49:14.714Z,6.00
2018-12-06T13:53:57.465Z,9.83
2018-12-06T13:58:14.842Z,8.20
2018-12-06T14:00:49.565Z,6.90
2018-12-06T14:03:30.721Z,8.17
2018-12-06T14:06:05.022Z,5.43
2018-12-06T14:08:39.419Z,6.43
2018-12-06T14:11:19.140Z,4.90
2018-12-06T14:16:34.370Z,7.47
2018-12-06T14:19:08.543Z,8.03
2018-12-06T14:21:42.655Z,7.40
2018-12-06T14:24:16.998Z,7.07
2018-12-06T14:29:30.327Z,7.50
2018-12-06T14:32:05.745Z,6.40
2018-12-06T14:34:39.736Z,9.30
2018-12-06T14:37:13.841Z,6.37
2018-12-06T14:39:47.825Z,7.20
2018-12-06T14:42:21.766Z,6.47
2018-12-06T14:44:55.738Z,7.57
2018-12-06T14:47:29.714Z,9.33
2018-12-06T14:50:04.510Z,8.80
2018-12-06T14:52:38.627Z,8.77
2018-12-06T14:55:12.700Z,9.27
2018-12-06T14:57:47.003Z,8.07
2018-12-06T15:00:21.816Z,8.50
2018-12-06T15:03:00.401Z,9.37
2018-12-06T15:05:34.802Z,7.67
2018-12-06T15:08:08.949Z,7.47
2018-12-06T15:10:42.918Z,8.97
2018-12-06T15:13:16.901Z,8.53
2018-12-06T15:15:51.741Z,6.53
2018-12-06T15:18:25.970Z,6.63
2018-12-06T15:21:00.299Z,8.47
2018-12-06T15:26:12.727Z,6.50
2018-12-06T15:28:48.371Z,6.73
2018-12-06T15:31:22.925Z,6.00
2018-12-06T15:33:57.393Z,7.03
2018-12-06T15:36:34.009Z,6.33
2018-12-06T15:39:08.517Z,9.37
2018-12-06T15:41:44.280Z,8.37
2018-12-06T15:44:18.500Z,7.97
2018-12-06T15:46:52.894Z,8.00
2018-12-06T15:49:28.373Z,8.33
2018-12-06T15:52:02.621Z,10.47
2018-12-06T15:54:37.976Z,11.80
2018-12-06T15:57:12.287Z,9.57
2018-12-06T15:59:47.072Z,10.03
2018-12-06T16:02:29.138Z,11.13
2018-12-06T16:05:03.988Z,8.03
2018-12-06T16:07:38.528Z,7.40
2018-12-06T16:10:13.745Z,6.73
2018-12-06T16:17:35.832Z,6.90
2018-12-06T16:20:15.253Z,8.60
2018-12-06T16:22:50.622Z,9.70
2018-12-06T16:25:24.706Z,8.37
2018-12-06T16:27:59.644Z,7.17
2018-12-06T16:30:33.879Z,7.90
2018-12-06T16:33:10.348Z,7.53
2018-12-06T16:38:53.367Z,8.70
2018-12-06T16:41:30.663Z,7.77
2018-12-06T16:44:12.751Z,8.73
2018-12-06T16:46:54.136Z,9.67
2018-12-06T16:49:29.475Z,9.40
2018-12-06T16:52:03.793Z,7.30
2018-12-06T16:54:38.367Z,10.03
2018-12-06T16:57:13.276Z,9.53
2018-12-06T16:59:48.771Z,8.60
2018-12-06T17:02:22.931Z,9.00
2018-12-06T17:04:58.151Z,8.70
2018-12-06T17:07:33.819Z,9.87
2018-12-06T17:10:08.221Z,10.20
2018-12-06T17:12:42.695Z,9.13
2018-12-06T17:15:17.063Z,9.23
2018-12-06T17:17:51.748Z,8.17
2018-12-06T17:20:26.182Z,6.93
2018-12-06T17:22:59.909Z,7.80
2018-12-06T17:25:34.050Z,8.43
2018-12-06T17:28:08.158Z,8.23
2018-12-06T17:30:42.477Z,10.23
2018-12-06T17:33:16.483Z,8.83
2018-12-06T17:35:51.714Z,8.00
2018-12-06T17:38:25.940Z,9.63
2018-12-06T17:41:00.845Z,7.93
2018-12-06T17:43:35.083Z,8.37
2018-12-06T17:46:08.921Z,7.73
2018-12-06T17:48:43.628Z,8.33
2018-12-06T17:51:17.710Z,10.00
2018-12-06T17:53:54.119Z,9.10
2018-12-06T17:56:39.953Z,9.83
2018-12-06T17:59:14.709Z,8.13
2018-12-06T18:07:43.507Z,8.87
2018-12-06T18:10:18.166Z,9.90
2018-12-06T18:12:52.351Z,8.53
2018-12-06T18:19:18.760Z,8.60
2018-12-06T18:25:39.998Z,9.37
2018-12-06T18:28:15.075Z,11.00
2018-12-06T18:30:49.472Z,12.50
2018-12-06T18:33:28.843Z,14.37
2018-12-06T18:36:03.558Z,14.67
2018-12-06T18:38:46.165Z,10.43
2018-12-06T18:48:57.110Z,14.87
2018-12-06T18:55:15.027Z,16.87
2018-12-06T19:04:13.517Z,20.85
2018-12-06T19:06:50.178Z,22.37
2018-12-06T19:09:24.284Z,15.47
2018-12-06T19:11:58.517Z,35.13
2018-12-06T19:17:10.325Z,28.77
2018-12-06T19:19:44.676Z,26.23
2018-12-06T19:22:18.362Z,40.73
2018-12-06T19:24:52.575Z,50.07
2018-12-06T19:27:26.664Z,37.63
2018-12-06T19:30:00.760Z,15.77
2018-12-06T19:32:35.740Z,38.63
2018-12-06T19:35:09.882Z,37.00
2018-12-06T19:37:44.420Z,28.37
2018-12-06T19:40:20.595Z,36.63
2018-12-06T19:42:54.789Z,20.60
2018-12-06T19:45:28.762Z,14.17
2018-12-06T19:48:02.728Z,16.47
2018-12-06T19:50:36.958Z,17.17
2018-12-06T19:53:12.219Z,15.43
2018-12-06T19:55:46.361Z,12.07
2018-12-06T19:58:32.210Z,14.07
2018-12-06T20:14:52.134Z,8.70
2018-12-06T20:27:17.358Z,12.20
2018-12-06T20:32:05.820Z,8.83
2018-12-06T20:34:42.329Z,10.83
2018-12-06T20:37:21.908Z,17.70
2018-12-06T20:39:56.958Z,11.07
2018-12-06T20:45:51.129Z,10.60
2018-12-06T20:48:28.736Z,9.40
2018-12-06T20:53:43.956Z,11.00
2018-12-06T20:59:14.638Z,9.03
2018-12-06T21:01:52.091Z,8.67
2018-12-06T21:04:26.228Z,8.13
2018-12-06T21:07:01.536Z,8.43
2018-12-06T21:09:35.795Z,8.70
2018-12-06T21:12:10.346Z,13.57
2018-12-06T21:17:23.457Z,8.33
2018-12-06T21:22:45.002Z,9.23
2018-12-06T21:25:26.752Z,9.00
2018-12-06T21:28:00.988Z,11.27
2018-12-06T21:30:34.986Z,11.30
2018-12-06T21:33:10.283Z,11.40
2018-12-06T21:35:45.030Z,9.20
2018-12-06T21:38:19.328Z,11.90
2018-12-06T21:40:53.750Z,9.60
2018-12-06T21:47:45.040Z,15.53
2018-12-06T21:50:19.499Z,18.10
2018-12-06T21:52:53.291Z,17.27
2018-12-06T21:55:28.185Z,17.17
2018-12-06T21:58:02.309Z,20.80
2018-12-06T22:00:36.369Z,19.37
2018-12-06T22:03:17.101Z,15.33
2018-12-06T22:05:50.992Z,15.83
2018-12-06T22:08:25.082Z,18.00
2018-12-06T22:10:59.029Z,18.90
2018-12-06T22:13:33.027Z,22.80
2018-12-06T22:16:06.812Z,20.00
2018-12-06T22:18:41.002Z,21.97
2018-12-06T22:21:16.053Z,21.17
2018-12-06T22:23:52.470Z,19.67
2018-12-06T22:26:26.390Z,19.83
2018-12-06T22:29:00.411Z,13.80
2018-12-06T22:31:34.743Z,12.20
2018-12-06T22:34:08.974Z,12.43
2018-12-06T22:36:43.374Z,12.00
2018-12-06T22:39:17.588Z,13.70
2018-12-06T22:41:51.683Z,12.40
2018-12-06T22:44:25.981Z,10.63
2018-12-06T22:47:00.333Z,10.20
2018-12-06T22:49:35.046Z,9.63
2018-12-06T22:52:09.125Z,10.83
2018-12-06T22:54:43.064Z,11.67
2018-12-06T22:57:17.142Z,10.57
2018-12-06T22:59:51.316Z,10.37
2018-12-06T23:02:25.565Z,9.67
2018-12-06T23:05:00.010Z,8.23
2018-12-06T23:07:34.432Z,10.87
2018-12-06T23:10:09.231Z,8.63
2018-12-06T23:12:43.721Z,8.80
2018-12-06T23:15:17.688Z,10.43
2018-12-06T23:17:51.838Z,11.27
2018-12-06T23:23:16.267Z,10.20
2018-12-06T23:25:50.502Z,9.80
2018-12-06T23:28:24.678Z,11.30
2018-12-06T23:31:09.539Z,8.53
2018-12-06T23:33:43.618Z,9.13
2018-12-06T23:36:19.443Z,9.07
2018-12-06T23:38:53.426Z,10.13
2018-12-06T23:41:27.182Z,11.23
2018-12-06T23:46:39.872Z,8.93
2018-12-06T23:49:14.249Z,8.63
2018-12-06T23:55:03.623Z,10.27
2018-12-06T23:57:37.541Z,8.33
